createdAt,value
2022-11-24T00:01:13.441Z,29.25
2022-11-24T00:03:41.488Z,29.60
2022-11-24T00:06:11.181Z,28.95
2022-11-24T00:08:40.510Z,26.27
2022-11-24T00:11:09.577Z,27.75
2022-11-24T00:13:39.095Z,28.20
2022-11-24T00:16:09.432Z,24.67
2022-11-24T00:18:37.679Z,23.23
2022-11-24T00:21:05.330Z,27.70
2022-11-24T00:23:33.458Z,25.17
2022-11-24T00:26:05.777Z,26.77
2022-11-24T00:28:33.951Z,22.55
2022-11-24T00:31:05.078Z,27.70
2022-11-24T00:33:32.876Z,27.13
2022-11-24T00:36:00.833Z,24.27
2022-11-24T00:38:31.060Z,23.40
2022-11-24T00:40:58.497Z,26.08
2022-11-24T00:43:26.347Z,24.63
2022-11-24T00:45:53.715Z,25.70
2022-11-24T00:48:23.255Z,25.60
2022-11-24T00:50:56.739Z,21.48
2022-11-24T00:53:24.655Z,26.42
2022-11-24T00:55:52.146Z,25.20
2022-11-24T00:58:20.174Z,27.92
2022-11-24T01:00:47.368Z,24.75
2022-11-24T01:03:15.387Z,22.88
2022-11-24T01:05:44.072Z,23.40
2022-11-24T01:08:12.345Z,21.33
2022-11-24T01:10:39.696Z,20.23
2022-11-24T01:13:07.384Z,21.17
2022-11-24T01:15:35.578Z,20.50
2022-11-24T01:18:04.014Z,20.65
2022-11-24T01:20:31.632Z,20.38
2022-11-24T01:23:00.810Z,17.98
2022-11-24T01:25:28.103Z,18.27
2022-11-24T01:27:55.778Z,20.10
2022-11-24T01:30:23.089Z,22.90
2022-11-24T01:32:50.736Z,21.35
2022-11-24T01:35:18.136Z,22.15
2022-11-24T01:37:45.858Z,22.98
2022-11-24T01:40:14.638Z,23.88
2022-11-24T01:42:48.395Z,20.35
2022-11-24T01:45:38.104Z,18.17
2022-11-24T01:48:11.451Z,20.45
2022-11-24T01:50:39.402Z,20.77
2022-11-24T01:53:07.858Z,19.02
2022-11-24T01:55:39.389Z,18.73
2022-11-24T01:58:11.244Z,19.33
2022-11-24T02:00:41.626Z,18.95
2022-11-24T02:03:11.849Z,17.02
2022-11-24T02:05:44.001Z,18.83
2022-11-24T02:08:17.871Z,22.30
2022-11-24T02:10:47.391Z,20.77
2022-11-24T02:13:15.516Z,22.50
2022-11-24T02:15:42.955Z,21.13
2022-11-24T02:18:10.823Z,21.90
2022-11-24T02:20:38.363Z,20.50
2022-11-24T02:23:13.364Z,18.65
2022-11-24T02:25:50.454Z,16.63
2022-11-24T02:28:22.489Z,19.02
2022-11-24T02:30:50.615Z,18.40
2022-11-24T02:33:20.374Z,19.60
2022-11-24T02:35:47.708Z,18.75
2022-11-24T02:38:15.497Z,19.40
2022-11-24T02:40:46.807Z,17.98
2022-11-24T02:43:19.859Z,19.90
2022-11-24T02:45:48.627Z,18.00
2022-11-24T02:48:16.580Z,19.73
2022-11-24T02:50:43.896Z,19.63
2022-11-24T02:53:11.607Z,19.33
2022-11-24T02:55:38.970Z,23.33
2022-11-24T02:58:06.822Z,19.65
2022-11-24T03:00:34.149Z,20.80
2022-11-24T03:03:03.978Z,23.35
2022-11-24T03:05:31.275Z,19.60
2022-11-24T03:07:59.058Z,21.55
2022-11-24T03:10:26.267Z,21.30
2022-11-24T03:12:54.892Z,21.52
2022-11-24T03:15:22.381Z,18.90
2022-11-24T03:17:50.342Z,19.70
2022-11-24T03:20:19.300Z,21.77
2022-11-24T03:22:47.043Z,21.33
2022-11-24T03:25:14.418Z,20.33
2022-11-24T03:27:42.192Z,20.70
2022-11-24T03:30:10.891Z,21.67
2022-11-24T03:32:38.592Z,25.25
2022-11-24T03:35:06.670Z,21.67
2022-11-24T03:37:35.781Z,23.38
2022-11-24T03:40:03.314Z,26.23
2022-11-24T03:42:31.045Z,24.50
2022-11-24T03:45:01.642Z,27.85
2022-11-24T03:47:39.312Z,27.92
2022-11-24T03:50:06.960Z,26.88
2022-11-24T03:52:36.071Z,25.50
2022-11-24T03:55:03.441Z,29.83
2022-11-24T03:57:31.147Z,28.92
2022-11-24T03:59:58.374Z,28.55
2022-11-24T04:02:26.055Z,29.95
2022-11-24T04:04:53.364Z,27.80
2022-11-24T04:07:21.039Z,26.60
2022-11-24T04:09:49.853Z,25.73
2022-11-24T04:12:17.571Z,26.67
2022-11-24T04:14:44.869Z,25.60
2022-11-24T04:17:12.689Z,26.30
2022-11-24T04:19:39.982Z,24.83
2022-11-24T04:22:07.705Z,25.95
2022-11-24T04:24:35.345Z,27.67
2022-11-24T04:27:04.600Z,24.48
2022-11-24T04:29:32.022Z,26.55
2022-11-24T04:31:59.759Z,24.30
2022-11-24T04:34:27.138Z,25.58
2022-11-24T04:36:54.965Z,24.38
2022-11-24T04:39:26.280Z,24.90
2022-11-24T04:41:54.669Z,24.42
2022-11-24T04:44:23.411Z,26.52
2022-11-24T04:46:51.241Z,24.13
2022-11-24T04:49:18.991Z,23.00
2022-11-24T04:51:47.043Z,24.23
2022-11-24T04:54:15.138Z,22.17
2022-11-24T04:56:43.531Z,25.48
2022-11-24T04:59:13.686Z,26.63
2022-11-24T05:01:43.257Z,25.98
2022-11-24T05:04:11.336Z,27.42
2022-11-24T05:06:39.362Z,26.38
2022-11-24T05:09:08.076Z,23.67
2022-11-24T05:11:35.685Z,22.15
2022-11-24T05:14:03.044Z,21.45
2022-11-24T05:16:30.840Z,20.42
2022-11-24T05:18:59.658Z,23.50
2022-11-24T05:21:28.431Z,21.05
2022-11-24T05:23:55.746Z,25.42
2022-11-24T05:26:23.480Z,23.52
2022-11-24T05:28:50.753Z,23.98
2022-11-24T05:31:18.703Z,26.27
2022-11-24T05:33:46.081Z,24.63
2022-11-24T05:36:15.281Z,24.50
2022-11-24T05:38:42.609Z,26.58
2022-11-24T05:41:10.347Z,24.92
2022-11-24T05:43:37.607Z,26.30
2022-11-24T05:46:05.439Z,28.15
2022-11-24T05:48:32.771Z,28.23
2022-11-24T05:51:03.116Z,26.58
2022-11-24T05:53:33.735Z,28.02
2022-11-24T05:56:03.457Z,24.85
2022-11-24T05:58:30.793Z,24.65
2022-11-24T06:00:58.440Z,27.00
2022-11-24T06:03:25.713Z,26.20
2022-11-24T06:05:53.445Z,22.25
2022-11-24T06:08:20.610Z,23.10
2022-11-24T06:10:49.709Z,24.10
2022-11-24T06:13:16.999Z,24.90
2022-11-24T06:15:44.811Z,23.90
2022-11-24T06:18:12.116Z,22.95
2022-11-24T06:20:39.711Z,24.70
2022-11-24T06:23:06.966Z,24.08
2022-11-24T06:25:34.537Z,23.92
2022-11-24T06:28:05.017Z,22.35
2022-11-24T06:30:32.767Z,21.20
2022-11-24T06:33:00.452Z,20.80
2022-11-24T06:35:28.133Z,21.42
2022-11-24T06:37:55.463Z,19.92
2022-11-24T06:40:23.099Z,20.98
2022-11-24T06:42:50.841Z,20.27
2022-11-24T06:45:20.026Z,22.27
2022-11-24T06:47:47.239Z,24.50
2022-11-24T06:50:15.194Z,23.95
2022-11-24T06:52:42.662Z,20.50
2022-11-24T06:55:10.416Z,22.40
2022-11-24T06:57:37.795Z,24.08
2022-11-24T07:00:07.150Z,25.02
2022-11-24T07:02:39.818Z,21.17
2022-11-24T07:05:10.282Z,24.05
2022-11-24T07:07:37.694Z,28.63
2022-11-24T07:10:06.595Z,25.80
2022-11-24T07:12:34.627Z,27.88
2022-11-24T07:15:02.324Z,25.17
2022-11-24T07:17:29.794Z,27.05
2022-11-24T07:19:59.006Z,24.13
2022-11-24T07:22:26.307Z,24.67
2022-11-24T07:24:54.118Z,28.95
2022-11-24T07:27:23.551Z,23.23
2022-11-24T07:29:51.129Z,25.92
2022-11-24T07:32:18.447Z,26.88
2022-11-24T07:34:46.289Z,25.75
2022-11-24T07:37:15.284Z,24.55
2022-11-24T07:39:42.986Z,27.13
2022-11-24T07:42:10.211Z,26.98
2022-11-24T07:44:37.811Z,26.38
2022-11-24T07:47:05.186Z,28.45
2022-11-24T07:49:32.911Z,27.23
2022-11-24T07:52:00.184Z,27.08
2022-11-24T07:54:29.317Z,27.73
2022-11-24T07:56:56.961Z,27.45
2022-11-24T07:59:24.637Z,27.55
2022-11-24T08:01:52.041Z,27.08
2022-11-24T08:04:19.936Z,25.83
2022-11-24T08:06:47.741Z,26.52
2022-11-24T08:09:15.643Z,22.48
2022-11-24T08:11:44.223Z,24.38
2022-11-24T08:14:11.840Z,25.70
2022-11-24T08:16:39.208Z,25.00
2022-11-24T08:19:06.828Z,25.63
2022-11-24T08:21:34.042Z,27.15
2022-11-24T08:24:01.796Z,25.98
2022-11-24T08:26:29.260Z,25.85
2022-11-24T08:28:59.628Z,23.73
2022-11-24T08:31:28.598Z,24.92
2022-11-24T08:33:56.225Z,24.83
2022-11-24T08:36:23.543Z,25.05
2022-11-24T08:38:55.321Z,27.45
2022-11-24T08:41:23.327Z,24.65
2022-11-24T08:43:51.420Z,23.98
2022-11-24T08:46:20.598Z,25.27
2022-11-24T08:48:49.237Z,25.17
2022-11-24T08:51:18.388Z,24.10
2022-11-24T08:53:46.708Z,24.80
2022-11-24T08:56:14.632Z,26.58
2022-11-24T08:58:42.479Z,26.80
2022-11-24T09:01:11.378Z,28.80
2022-11-24T09:03:46.353Z,28.70
2022-11-24T09:06:16.418Z,29.23
2022-11-24T09:08:44.328Z,29.77
2022-11-24T09:11:13.772Z,29.48
2022-11-24T09:13:41.511Z,26.75
2022-11-24T09:16:11.293Z,26.50
2022-11-24T09:18:40.904Z,27.33
2022-11-24T09:21:09.577Z,24.73
2022-11-24T09:23:37.749Z,30.67
2022-11-24T09:26:06.331Z,30.35
2022-11-24T09:28:34.124Z,28.88
2022-11-24T09:31:02.022Z,27.10
2022-11-24T09:33:29.872Z,27.33
2022-11-24T09:35:58.617Z,28.05
2022-11-24T09:38:26.831Z,30.33
2022-11-24T09:40:57.816Z,27.05
2022-11-24T09:43:33.289Z,30.15
2022-11-24T09:46:08.993Z,31.85
2022-11-24T09:48:40.256Z,32.10
2022-11-24T09:51:12.374Z,31.05
2022-11-24T09:53:46.018Z,32.53
2022-11-24T09:56:20.642Z,29.67
2022-11-24T09:58:50.336Z,30.85
2022-11-24T10:01:19.811Z,26.83
2022-11-24T10:03:50.186Z,28.95
2022-11-24T10:06:27.492Z,29.60
2022-11-24T10:09:10.676Z,31.90
2022-11-24T10:11:43.078Z,30.45
2022-11-24T10:16:55.873Z,29.23
2022-11-24T10:19:37.548Z,28.58
2022-11-24T10:22:23.706Z,32.15
2022-11-24T10:25:09.271Z,27.40
2022-11-24T10:27:41.864Z,30.75
2022-11-24T10:30:15.440Z,33.58
2022-11-24T10:32:46.629Z,31.50
2022-11-24T10:35:18.147Z,33.03
2022-11-24T10:37:54.514Z,32.80
2022-11-24T10:43:19.150Z,30.02
2022-11-24T10:45:47.445Z,28.65
2022-11-24T10:48:20.671Z,33.03
2022-11-24T10:50:48.414Z,27.35
2022-11-24T10:53:23.205Z,30.08
2022-11-24T10:56:02.484Z,29.02
2022-11-24T10:58:36.054Z,27.30
2022-11-24T11:01:20.845Z,28.25
2022-11-24T11:03:50.165Z,27.13
2022-11-24T11:06:22.609Z,26.15
2022-11-24T11:09:16.654Z,25.73
2022-11-24T11:11:44.338Z,25.05
2022-11-24T11:14:11.741Z,26.85
2022-11-24T11:16:41.336Z,25.50
2022-11-24T11:19:48.493Z,24.38
2022-11-24T11:22:24.979Z,22.33
2022-11-24T11:25:14.118Z,23.33
2022-11-24T11:27:42.545Z,24.92
2022-11-24T11:36:10.499Z,22.77
2022-11-24T11:38:40.485Z,25.33
2022-11-24T11:41:19.220Z,25.35
2022-11-24T11:43:50.553Z,26.35
2022-11-24T11:46:17.981Z,27.35
2022-11-24T11:48:47.663Z,29.17
2022-11-24T11:51:33.659Z,29.92
2022-11-24T11:54:08.317Z,27.65
2022-11-24T11:56:41.513Z,28.00
2022-11-24T11:59:39.310Z,28.52
2022-11-24T12:02:35.118Z,27.45
2022-11-24T12:05:11.137Z,26.40
2022-11-24T12:08:09.201Z,26.42
2022-11-24T12:10:45.743Z,27.17
2022-11-24T12:13:45.766Z,28.23
2022-11-24T12:16:30.341Z,28.45
2022-11-24T12:19:15.095Z,27.98
2022-11-24T12:21:52.243Z,29.05
2022-11-24T12:24:28.500Z,27.45
2022-11-24T12:27:00.025Z,27.67
2022-11-24T12:29:57.201Z,29.35
2022-11-24T12:32:40.904Z,25.27
2022-11-24T12:35:18.932Z,26.55
2022-11-24T12:37:56.477Z,24.55
2022-11-24T12:40:35.519Z,26.50
2022-11-24T12:43:11.620Z,26.95
2022-11-24T12:45:49.905Z,25.63
2022-11-24T12:48:29.164Z,27.48
2022-11-24T12:50:58.410Z,27.33
2022-11-24T12:53:29.315Z,28.63
2022-11-24T12:56:04.605Z,26.92
2022-11-24T12:58:40.425Z,28.10
2022-11-24T13:01:17.841Z,26.80
2022-11-24T13:04:00.681Z,27.90
2022-11-24T13:06:35.256Z,27.33
2022-11-24T13:09:08.527Z,26.48
2022-11-24T13:11:40.134Z,26.30
2022-11-24T13:14:14.876Z,24.95
2022-11-24T13:19:46.954Z,24.92
2022-11-24T13:22:17.047Z,25.02
2022-11-24T13:24:45.073Z,27.00
2022-11-24T13:27:39.908Z,27.42
2022-11-24T13:30:50.173Z,24.13
2022-11-24T13:33:34.232Z,26.77
2022-11-24T13:36:31.683Z,25.85
2022-11-24T13:39:00.097Z,26.58
2022-11-24T13:42:07.607Z,27.23
2022-11-24T13:44:49.567Z,26.85
2022-11-24T13:47:41.280Z,28.08
2022-11-24T13:50:14.570Z,26.40
2022-11-24T13:52:50.719Z,26.10
2022-11-24T13:55:23.620Z,24.65
2022-11-24T13:57:53.668Z,24.45
2022-11-24T14:00:24.320Z,26.98
2022-11-24T14:02:55.137Z,26.63
2022-11-24T14:05:33.692Z,28.73
2022-11-24T14:08:04.943Z,25.77
2022-11-24T14:10:35.737Z,25.25
2022-11-24T14:13:26.988Z,24.08
2022-11-24T14:16:06.037Z,26.90
2022-11-24T14:18:35.517Z,26.17
2022-11-24T14:21:22.341Z,26.48
2022-11-24T14:23:54.503Z,24.55
2022-11-24T14:26:24.328Z,26.40
2022-11-24T14:29:05.025Z,25.08
2022-11-24T14:31:32.385Z,25.92
2022-11-24T14:34:25.084Z,25.50
2022-11-24T14:36:53.625Z,24.27
2022-11-24T14:39:24.269Z,24.63
2022-11-24T14:41:53.520Z,26.92
2022-11-24T14:44:23.825Z,25.10
2022-11-24T14:47:00.543Z,25.70
2022-11-24T14:49:28.760Z,25.38
2022-11-24T14:51:58.437Z,28.02
2022-11-24T14:54:28.640Z,27.23
2022-11-24T14:56:58.859Z,30.75
2022-11-24T14:59:28.382Z,30.30
2022-11-24T15:01:56.201Z,29.33
2022-11-24T15:07:18.712Z,29.40
2022-11-24T15:09:52.544Z,29.17
2022-11-24T15:12:26.349Z,30.83
2022-11-24T15:14:56.586Z,31.95
2022-11-24T15:17:27.100Z,34.92
2022-11-24T15:19:58.510Z,32.15
2022-11-24T15:22:37.971Z,34.30
2022-11-24T15:25:34.229Z,32.35
2022-11-24T15:28:01.459Z,26.65
2022-11-24T15:30:30.242Z,26.60
2022-11-24T15:32:58.996Z,29.42
2022-11-24T15:35:31.050Z,28.60
2022-11-24T15:37:58.726Z,25.52
2022-11-24T15:40:26.310Z,20.60
2022-11-24T15:42:57.900Z,21.67
2022-11-24T15:45:27.192Z,27.20
2022-11-24T15:47:54.485Z,29.40
2022-11-24T15:50:22.094Z,17.92
2022-11-24T15:52:49.597Z,28.10
2022-11-24T15:55:19.464Z,27.90
2022-11-24T15:57:47.378Z,28.42
2022-11-24T16:00:19.792Z,20.48
2022-11-24T16:02:47.533Z,19.30
2022-11-24T16:05:17.633Z,25.52
2022-11-24T16:07:45.233Z,25.27
2022-11-24T16:10:21.853Z,18.10
2022-11-24T16:12:49.127Z,19.08
2022-11-24T16:15:18.292Z,22.13
2022-11-24T16:17:48.493Z,25.20
2022-11-24T16:20:16.426Z,22.85
2022-11-24T16:22:44.154Z,19.58
2022-11-24T16:25:12.651Z,22.80
2022-11-24T16:27:39.981Z,28.65
2022-11-24T16:30:09.359Z,28.40
2022-11-24T16:32:38.092Z,31.15
2022-11-24T16:35:09.285Z,32.13
2022-11-24T16:37:36.633Z,25.63
2022-11-24T16:40:06.081Z,27.58
2022-11-24T16:42:33.541Z,29.50
2022-11-24T16:45:01.288Z,27.88
2022-11-24T16:47:28.756Z,27.83
2022-11-24T16:49:58.014Z,31.20
2022-11-24T16:52:25.367Z,27.88
2022-11-24T16:54:53.273Z,28.33
2022-11-24T16:57:20.590Z,25.33
2022-11-24T16:59:48.406Z,25.85
2022-11-24T17:02:15.894Z,26.08
2022-11-24T17:04:43.639Z,23.75
2022-11-24T17:07:12.641Z,24.05
2022-11-24T17:09:40.967Z,24.30
2022-11-24T17:12:08.421Z,23.30
2022-11-24T17:14:36.466Z,22.83
2022-11-24T17:17:04.195Z,27.80
2022-11-24T17:19:32.020Z,28.42
2022-11-24T17:21:59.376Z,25.08
2022-11-24T17:24:28.501Z,26.65
2022-11-24T17:26:55.944Z,26.20
2022-11-24T17:29:23.604Z,19.77
2022-11-24T17:31:50.952Z,22.58
2022-11-24T17:34:19.191Z,21.35
2022-11-24T17:36:46.661Z,19.58
2022-11-24T17:39:14.443Z,19.58
2022-11-24T17:41:43.312Z,18.80
2022-11-24T17:44:14.108Z,22.02
2022-11-24T17:46:43.699Z,22.70
2022-11-24T17:49:15.471Z,23.80
2022-11-24T17:51:43.618Z,23.70
2022-11-24T17:54:39.103Z,24.40
2022-11-24T17:57:01.457Z,23.75
2022-11-24T17:59:29.454Z,22.23
2022-11-24T18:01:56.776Z,23.63
2022-11-24T18:04:24.486Z,23.90
2022-11-24T18:06:51.913Z,26.23
2022-11-24T18:09:19.896Z,29.08
2022-11-24T18:11:47.222Z,27.90
2022-11-24T18:14:16.564Z,26.88
2022-11-24T18:16:44.100Z,29.00
2022-11-24T18:19:12.188Z,25.10
2022-11-24T18:21:41.057Z,22.70
2022-11-24T18:24:10.543Z,21.98
2022-11-24T18:26:38.886Z,22.40
2022-11-24T18:29:07.228Z,23.88
2022-11-24T18:31:36.706Z,20.83
2022-11-24T18:34:05.940Z,21.40
2022-11-24T18:36:33.966Z,20.98
2022-11-24T18:39:02.293Z,25.60
2022-11-24T18:41:29.869Z,28.65
2022-11-24T18:43:57.695Z,21.75
2022-11-24T18:46:25.063Z,18.95
2022-11-24T18:48:55.205Z,22.00
2022-11-24T18:51:22.507Z,22.50
2022-11-24T18:53:52.795Z,21.70
2022-11-24T18:56:20.528Z,20.05
2022-11-24T18:58:48.372Z,20.48
2022-11-24T19:01:17.506Z,26.48
2022-11-24T19:03:48.986Z,27.17
2022-11-24T19:06:21.947Z,28.35
2022-11-24T19:08:53.592Z,19.83
2022-11-24T19:11:23.587Z,31.58
2022-11-24T19:13:52.156Z,26.42
2022-11-24T19:16:20.663Z,27.23
2022-11-24T19:18:53.331Z,25.55
2022-11-24T19:21:23.262Z,31.35
2022-11-24T19:23:51.145Z,31.85
2022-11-24T19:26:18.952Z,32.85
2022-11-24T19:28:47.191Z,28.48
2022-11-24T19:31:16.224Z,28.05
2022-11-24T19:33:44.710Z,29.80
2022-11-24T19:36:14.901Z,27.50
2022-11-24T19:38:50.070Z,24.92
2022-11-24T19:41:18.318Z,26.20
2022-11-24T19:43:46.561Z,26.00
2022-11-24T19:46:16.153Z,27.13
2022-11-24T19:48:45.944Z,27.85
2022-11-24T19:51:15.401Z,26.27
2022-11-24T19:53:45.111Z,27.27
2022-11-24T19:56:13.964Z,27.95
2022-11-24T19:58:42.465Z,30.67
2022-11-24T20:01:12.374Z,31.05
2022-11-24T20:03:41.511Z,30.08
2022-11-24T20:06:10.163Z,33.08
2022-11-24T20:08:38.914Z,29.15
2022-11-24T20:11:10.217Z,27.95
2022-11-24T20:13:39.870Z,25.50
2022-11-24T20:16:09.593Z,27.35
2022-11-24T20:18:41.961Z,28.35
2022-11-24T20:21:11.896Z,26.30
2022-11-24T20:23:40.827Z,26.85
2022-11-24T20:26:12.327Z,28.42
2022-11-24T20:28:41.518Z,29.77
2022-11-24T20:31:11.410Z,27.92
2022-11-24T20:33:39.922Z,28.50
2022-11-24T20:36:09.587Z,30.52
2022-11-24T20:38:38.975Z,30.70
2022-11-24T20:41:09.998Z,27.13
2022-11-24T20:43:38.223Z,28.15
2022-11-24T20:46:08.182Z,28.55
2022-11-24T20:48:37.257Z,27.27
2022-11-24T20:51:05.405Z,28.77
2022-11-24T20:53:33.243Z,27.23
2022-11-24T20:56:05.559Z,28.65
2022-11-24T20:58:36.116Z,34.08
2022-11-24T21:01:04.666Z,36.17
2022-11-24T21:03:32.835Z,34.28
2022-11-24T21:06:00.564Z,36.83
2022-11-24T21:08:28.382Z,36.95
2022-11-24T21:10:57.267Z,38.05
2022-11-24T21:13:25.918Z,39.35
2022-11-24T21:15:55.502Z,38.08
2022-11-24T21:18:23.171Z,37.60
2022-11-24T21:20:50.360Z,41.00
2022-11-24T21:23:18.075Z,37.65
2022-11-24T21:25:45.366Z,37.42
2022-11-24T21:28:13.085Z,38.03
2022-11-24T21:30:40.418Z,36.83
2022-11-24T21:33:09.581Z,36.53
2022-11-24T21:35:37.275Z,38.28
2022-11-24T21:38:05.269Z,36.70
2022-11-24T21:40:32.536Z,35.60
2022-11-24T21:43:00.329Z,35.47
2022-11-24T21:45:27.695Z,36.20
2022-11-24T21:47:56.185Z,31.70
2022-11-24T21:50:25.048Z,31.10
2022-11-24T21:52:52.739Z,33.63
2022-11-24T21:55:20.012Z,32.78
2022-11-24T21:57:48.121Z,31.80
2022-11-24T22:00:16.383Z,32.53
2022-11-24T22:02:44.267Z,31.27
2022-11-24T22:05:11.668Z,29.70
2022-11-24T22:07:40.765Z,29.15
2022-11-24T22:10:09.373Z,27.73
2022-11-24T22:12:37.201Z,28.05
2022-11-24T22:15:05.070Z,29.17
2022-11-24T22:17:32.978Z,29.83
2022-11-24T22:20:00.327Z,28.38
2022-11-24T22:22:28.061Z,30.00
2022-11-24T22:24:56.613Z,28.67
2022-11-24T22:27:24.351Z,28.50
2022-11-24T22:29:54.232Z,30.45
2022-11-24T22:32:22.058Z,30.63
2022-11-24T22:34:49.953Z,32.22
2022-11-24T22:37:18.058Z,32.17
2022-11-24T22:39:45.550Z,34.53
2022-11-24T22:42:15.263Z,34.13
2022-11-24T22:44:43.155Z,34.00
2022-11-24T22:47:12.590Z,32.78
2022-11-24T22:49:39.959Z,35.03
2022-11-24T22:52:07.568Z,31.85
2022-11-24T22:54:35.026Z,31.95
2022-11-24T22:57:02.942Z,33.33
2022-11-24T22:59:31.589Z,33.33
2022-11-24T23:01:59.292Z,32.63
2022-11-24T23:04:26.754Z,32.35
2022-11-24T23:06:54.546Z,34.38
2022-11-24T23:09:21.962Z,34.22
2022-11-24T23:11:49.639Z,34.67
2022-11-24T23:14:17.113Z,33.33
2022-11-24T23:16:46.325Z,33.42
2022-11-24T23:19:13.697Z,31.08
2022-11-24T23:21:41.312Z,34.10
2022-11-24T23:24:10.221Z,29.70
2022-11-24T23:26:40.748Z,30.40
2022-11-24T23:29:09.703Z,32.55
2022-11-24T23:31:40.663Z,26.88
2022-11-24T23:34:09.962Z,29.63
2022-11-24T23:36:38.312Z,33.97
2022-11-24T23:39:13.716Z,32.67
2022-11-24T23:41:41.499Z,30.08
2022-11-24T23:44:08.989Z,30.35
2022-11-24T23:46:36.878Z,30.08
2022-11-24T23:49:04.138Z,31.77
2022-11-24T23:51:34.286Z,35.97
2022-11-24T23:54:01.630Z,36.05
2022-11-24T23:56:31.295Z,36.10
2022-11-24T23:59:00.471Z,31.35
